createdAt,value
2022-11-02T00:00:23.361Z,14.27
2022-11-02T00:02:52.105Z,15.20
2022-11-02T00:05:24.611Z,15.10
2022-11-02T00:07:52.806Z,13.65
2022-11-02T00:10:21.185Z,13.38
2022-11-02T00:12:50.730Z,13.63
2022-11-02T00:15:18.741Z,12.43
2022-11-02T00:17:49.898Z,11.68
2022-11-02T00:20:18.918Z,13.38
2022-11-02T00:22:48.243Z,12.43
2022-11-02T00:25:18.644Z,12.43
2022-11-02T00:27:46.011Z,18.10
2022-11-02T00:30:16.693Z,13.48
2022-11-02T00:32:44.101Z,12.80
2022-11-02T00:35:11.558Z,13.85
2022-11-02T00:37:39.025Z,13.30
2022-11-02T00:40:07.446Z,13.07
2022-11-02T00:42:34.707Z,13.60
2022-11-02T00:45:02.503Z,12.77
2022-11-02T00:47:31.206Z,13.43
2022-11-02T00:49:58.488Z,15.27
2022-11-02T00:52:27.427Z,13.48
2022-11-02T00:54:55.119Z,15.00
2022-11-02T00:57:22.378Z,14.60
2022-11-02T00:59:49.756Z,10.80
2022-11-02T01:02:18.404Z,11.63
2022-11-02T01:04:47.182Z,11.63
2022-11-02T01:07:14.500Z,11.70
2022-11-02T01:09:42.809Z,12.45
2022-11-02T01:12:10.061Z,11.02
2022-11-02T01:14:37.777Z,14.50
2022-11-02T01:17:05.006Z,12.52
2022-11-02T01:19:32.325Z,12.73
2022-11-02T01:22:00.905Z,13.38
2022-11-02T01:24:28.158Z,12.95
2022-11-02T01:26:55.390Z,13.30
2022-11-02T01:29:22.640Z,10.73
2022-11-02T01:31:49.951Z,10.68
2022-11-02T01:34:17.835Z,12.68
2022-11-02T01:36:46.189Z,12.95
2022-11-02T01:39:15.647Z,11.03
2022-11-02T01:41:42.939Z,10.27
2022-11-02T01:44:29.465Z,12.15
2022-11-02T01:47:01.778Z,9.65
2022-11-02T01:49:32.485Z,11.32
2022-11-02T01:52:04.679Z,10.90
2022-11-02T01:54:40.404Z,11.35
2022-11-02T01:57:10.474Z,10.85
2022-11-02T01:59:45.395Z,11.27
2022-11-02T02:02:17.542Z,10.10
2022-11-02T02:04:47.907Z,9.87
2022-11-02T02:07:15.429Z,8.98
2022-11-02T02:09:48.606Z,9.57
2022-11-02T02:12:19.957Z,10.13
2022-11-02T02:14:47.418Z,9.32
2022-11-02T02:17:35.531Z,10.03
2022-11-02T02:20:10.743Z,10.95
2022-11-02T02:23:11.604Z,7.97
2022-11-02T02:26:12.352Z,9.88
2022-11-02T02:28:46.418Z,10.05
2022-11-02T02:31:20.023Z,10.47
2022-11-02T02:33:53.712Z,9.35
2022-11-02T02:36:25.879Z,8.77
2022-11-02T02:39:01.745Z,9.75
2022-11-02T02:41:38.521Z,7.82
2022-11-02T02:44:10.864Z,11.50
2022-11-02T02:46:44.670Z,8.20
2022-11-02T02:49:19.008Z,9.50
2022-11-02T02:51:47.247Z,10.70
2022-11-02T02:54:18.745Z,7.88
2022-11-02T02:56:50.386Z,8.03
2022-11-02T02:59:24.680Z,7.45
2022-11-02T03:01:53.135Z,9.40
2022-11-02T03:04:20.464Z,9.30
2022-11-02T03:06:51.766Z,9.05
2022-11-02T03:09:29.452Z,9.93
2022-11-02T03:12:12.947Z,7.57
2022-11-02T03:14:51.706Z,10.10
2022-11-02T03:17:27.618Z,8.45
2022-11-02T03:20:02.909Z,8.27
2022-11-02T03:22:34.446Z,9.67
2022-11-02T03:25:13.014Z,6.93
2022-11-02T03:27:50.626Z,8.75
2022-11-02T03:30:22.184Z,10.60
2022-11-02T03:32:55.867Z,8.38
2022-11-02T03:35:31.122Z,9.03
2022-11-02T03:38:04.427Z,7.50
2022-11-02T03:40:35.350Z,8.13
2022-11-02T03:43:05.415Z,7.07
2022-11-02T03:45:39.668Z,7.40
2022-11-02T03:48:09.696Z,8.70
2022-11-02T03:50:40.344Z,7.40
2022-11-02T03:53:12.357Z,6.45
2022-11-02T03:55:43.075Z,6.78
2022-11-02T03:58:11.617Z,6.97
2022-11-02T04:00:48.474Z,5.53
2022-11-02T04:03:17.514Z,8.30
2022-11-02T04:05:45.396Z,6.30
2022-11-02T04:08:22.873Z,5.28
2022-11-02T04:11:12.442Z,8.00
2022-11-02T04:14:00.111Z,7.43
2022-11-02T04:16:31.222Z,9.63
2022-11-02T04:19:19.354Z,9.48
2022-11-02T04:22:05.495Z,7.70
2022-11-02T04:24:53.963Z,8.25
2022-11-02T04:27:21.593Z,8.50
2022-11-02T04:29:51.095Z,7.10
2022-11-02T04:32:39.265Z,7.00
2022-11-02T04:35:10.643Z,7.68
2022-11-02T04:37:58.357Z,7.28
2022-11-02T04:40:25.846Z,8.60
2022-11-02T04:42:54.834Z,10.02
2022-11-02T04:45:22.128Z,5.85
2022-11-02T04:47:50.928Z,7.82
2022-11-02T04:50:18.680Z,5.72
2022-11-02T04:52:46.006Z,9.13
2022-11-02T04:55:13.588Z,7.72
2022-11-02T04:57:45.461Z,7.13
2022-11-02T05:00:15.506Z,6.68
2022-11-02T05:02:43.656Z,7.32
2022-11-02T05:05:12.781Z,5.63
2022-11-02T05:07:40.572Z,8.27
2022-11-02T05:10:08.719Z,9.48
2022-11-02T05:12:36.855Z,9.02
2022-11-02T05:15:05.124Z,8.00
2022-11-02T05:17:33.255Z,6.43
2022-11-02T05:20:00.726Z,6.30
2022-11-02T05:22:30.291Z,8.45
2022-11-02T05:24:58.175Z,8.25
2022-11-02T05:27:25.565Z,9.43
2022-11-02T05:29:52.854Z,5.63
2022-11-02T05:32:20.226Z,6.28
2022-11-02T05:34:47.875Z,6.30
2022-11-02T05:37:15.323Z,6.20
2022-11-02T05:39:47.706Z,8.25
2022-11-02T05:42:17.046Z,6.90
2022-11-02T05:44:44.435Z,7.95
2022-11-02T05:47:11.691Z,8.80
2022-11-02T05:49:38.945Z,8.80
2022-11-02T05:52:06.191Z,9.50
2022-11-02T05:54:33.444Z,8.43
2022-11-02T05:57:02.052Z,7.90
2022-11-02T05:59:29.327Z,8.38
2022-11-02T06:01:56.605Z,10.15
2022-11-02T06:04:23.935Z,7.20
2022-11-02T06:06:51.275Z,8.03
2022-11-02T06:09:18.609Z,6.07
2022-11-02T06:11:45.936Z,9.32
2022-11-02T06:14:14.567Z,7.93
2022-11-02T06:16:41.821Z,7.38
2022-11-02T06:19:09.148Z,6.83
2022-11-02T06:21:36.690Z,6.72
2022-11-02T06:24:04.501Z,10.77
2022-11-02T06:26:31.759Z,7.47
2022-11-02T06:28:59.669Z,6.88
2022-11-02T06:31:28.395Z,7.20
2022-11-02T06:33:55.666Z,6.72
2022-11-02T06:36:23.066Z,7.05
2022-11-02T06:38:51.158Z,6.97
2022-11-02T06:41:18.485Z,11.52
2022-11-02T06:43:45.739Z,6.80
2022-11-02T06:46:12.982Z,6.95
2022-11-02T06:48:41.571Z,6.78
2022-11-02T06:51:08.914Z,11.48
2022-11-02T06:53:36.159Z,9.25
2022-11-02T06:56:03.495Z,6.30
2022-11-02T06:58:30.983Z,8.45
2022-11-02T07:00:59.898Z,8.70
2022-11-02T07:03:27.347Z,7.80
2022-11-02T07:05:56.134Z,8.48
2022-11-02T07:08:23.461Z,6.63
2022-11-02T07:10:50.700Z,11.20
2022-11-02T07:13:18.148Z,6.50
2022-11-02T07:15:45.540Z,7.65
2022-11-02T07:18:13.392Z,6.18
2022-11-02T07:20:40.803Z,7.60
2022-11-02T07:23:10.171Z,7.95
2022-11-02T07:25:37.618Z,8.38
2022-11-02T07:28:05.223Z,11.10
2022-11-02T07:30:34.107Z,7.88
2022-11-02T07:33:01.651Z,9.03
2022-11-02T07:35:29.199Z,8.73
2022-11-02T07:37:57.678Z,7.90
2022-11-02T07:40:26.956Z,8.30
2022-11-02T07:42:54.504Z,10.27
2022-11-02T07:45:30.194Z,10.17
2022-11-02T07:47:57.576Z,9.43
2022-11-02T07:50:27.051Z,9.05
2022-11-02T07:52:55.947Z,8.75
2022-11-02T07:55:25.164Z,7.72
2022-11-02T07:57:58.700Z,8.47
2022-11-02T08:00:27.753Z,6.43
2022-11-02T08:02:55.785Z,8.32
2022-11-02T08:05:23.375Z,5.22
2022-11-02T08:07:57.229Z,6.80
2022-11-02T08:10:25.147Z,8.23
2022-11-02T08:12:52.515Z,11.07
2022-11-02T08:15:21.276Z,6.10
2022-11-02T08:17:48.804Z,8.90
2022-11-02T08:20:16.747Z,10.95
2022-11-02T08:22:43.993Z,8.87
2022-11-02T08:25:11.525Z,9.50
2022-11-02T08:27:38.890Z,6.75
2022-11-02T08:30:07.166Z,7.18
2022-11-02T08:32:35.727Z,7.75
2022-11-02T08:35:03.234Z,8.83
2022-11-02T08:37:30.499Z,9.65
2022-11-02T08:39:57.798Z,10.73
2022-11-02T08:42:25.350Z,6.75
2022-11-02T08:44:52.672Z,8.30
2022-11-02T08:47:19.983Z,7.17
2022-11-02T08:49:48.610Z,6.47
2022-11-02T08:52:15.843Z,6.88
2022-11-02T08:54:43.089Z,8.25
2022-11-02T08:57:10.446Z,6.35
2022-11-02T08:59:37.722Z,6.33
2022-11-02T09:02:05.124Z,5.75
2022-11-02T09:04:32.517Z,9.85
2022-11-02T09:07:01.232Z,9.13
2022-11-02T09:09:28.469Z,5.78
2022-11-02T09:11:55.727Z,5.87
2022-11-02T09:14:22.997Z,6.18
2022-11-02T09:16:50.273Z,6.90
2022-11-02T09:19:17.507Z,6.72
2022-11-02T09:21:44.794Z,8.85
2022-11-02T09:24:13.454Z,9.13
2022-11-02T09:26:40.793Z,9.13
2022-11-02T09:29:08.066Z,4.40
2022-11-02T09:31:35.297Z,9.15
2022-11-02T09:34:02.556Z,4.97
2022-11-02T09:36:29.961Z,8.40
2022-11-02T09:38:57.194Z,7.20
2022-11-02T09:41:34.659Z,6.63
2022-11-02T09:44:07.076Z,7.32
2022-11-02T09:46:40.304Z,7.10
2022-11-02T09:49:12.465Z,6.53
2022-11-02T09:51:44.629Z,8.77
2022-11-02T09:54:17.841Z,7.30
2022-11-02T09:56:47.910Z,6.45
2022-11-02T09:59:17.598Z,6.53
2022-11-02T10:01:55.662Z,4.77
2022-11-02T10:04:47.992Z,6.53
2022-11-02T10:07:27.412Z,9.65
2022-11-02T10:09:57.670Z,7.97
2022-11-02T10:12:35.243Z,6.90
2022-11-02T10:15:05.754Z,6.47
2022-11-02T10:17:36.513Z,9.18
2022-11-02T10:20:07.806Z,7.47
2022-11-02T10:22:40.075Z,7.28
2022-11-02T10:25:11.243Z,8.15
2022-11-02T10:27:40.227Z,7.27
2022-11-02T10:30:13.757Z,5.50
2022-11-02T10:35:33.851Z,5.43
2022-11-02T10:38:17.727Z,7.80
2022-11-02T10:40:55.882Z,8.33
2022-11-02T10:43:34.685Z,6.43
2022-11-02T10:46:15.955Z,6.90
2022-11-02T10:48:51.881Z,5.47
2022-11-02T10:51:21.386Z,7.22
2022-11-02T10:53:51.397Z,5.80
2022-11-02T10:56:21.262Z,7.20
2022-11-02T10:58:59.018Z,5.22
2022-11-02T11:01:27.595Z,6.53
2022-11-02T11:03:57.692Z,8.75
2022-11-02T11:06:28.799Z,12.93
2022-11-02T11:09:00.315Z,8.07
2022-11-02T11:11:30.464Z,7.07
2022-11-02T11:16:51.889Z,6.55
2022-11-02T11:19:39.146Z,7.43
2022-11-02T11:22:26.120Z,8.15
2022-11-02T11:24:53.650Z,6.70
2022-11-02T11:27:21.914Z,7.00
2022-11-02T11:29:54.361Z,7.50
2022-11-02T11:32:29.569Z,6.80
2022-11-02T11:35:00.810Z,6.50
2022-11-02T11:37:28.457Z,5.30
2022-11-02T11:39:59.298Z,6.63
2022-11-02T11:42:30.184Z,7.30
2022-11-02T11:45:03.162Z,5.43
2022-11-02T11:47:34.713Z,6.40
2022-11-02T11:50:09.497Z,6.40
2022-11-02T11:52:40.105Z,6.95
2022-11-02T11:55:22.233Z,6.63
2022-11-02T11:58:05.988Z,4.27
2022-11-02T12:00:34.927Z,4.55
2022-11-02T12:03:06.276Z,6.15
2022-11-02T12:05:45.537Z,6.55
2022-11-02T12:08:26.774Z,8.90
2022-11-02T12:11:07.584Z,8.67
2022-11-02T12:13:53.936Z,7.03
2022-11-02T12:16:34.069Z,6.60
2022-11-02T12:19:16.669Z,6.45
2022-11-02T12:21:54.143Z,7.95
2022-11-02T12:24:40.237Z,6.10
2022-11-02T12:27:19.551Z,7.63
2022-11-02T12:30:04.126Z,6.63
2022-11-02T12:32:48.498Z,6.53
2022-11-02T12:35:30.102Z,7.43
2022-11-02T12:38:15.269Z,8.80
2022-11-02T12:40:51.056Z,5.15
2022-11-02T12:43:40.118Z,5.38
2022-11-02T12:46:20.539Z,5.70
2022-11-02T12:48:59.870Z,5.35
2022-11-02T12:51:30.021Z,5.37
2022-11-02T12:54:02.840Z,7.85
2022-11-02T12:56:36.975Z,5.45
2022-11-02T12:59:04.392Z,7.43
2022-11-02T13:01:36.216Z,6.63
2022-11-02T13:04:13.534Z,4.80
2022-11-02T13:06:44.819Z,4.30
2022-11-02T13:09:18.248Z,4.35
2022-11-02T13:11:48.889Z,6.05
2022-11-02T13:14:19.335Z,5.45
2022-11-02T13:16:52.805Z,3.97
2022-11-02T13:19:25.793Z,5.35
2022-11-02T13:21:56.498Z,5.05
2022-11-02T13:24:31.630Z,6.60
2022-11-02T13:27:14.441Z,6.50
2022-11-02T13:29:50.951Z,5.80
2022-11-02T13:32:30.951Z,4.68
2022-11-02T13:35:06.424Z,5.28
2022-11-02T13:37:37.931Z,5.57
2022-11-02T13:40:14.482Z,5.53
2022-11-02T13:43:15.805Z,3.63
2022-11-02T13:45:53.511Z,3.38
2022-11-02T13:48:54.423Z,6.18
2022-11-02T13:51:29.823Z,4.63
2022-11-02T13:54:01.814Z,5.32
2022-11-02T13:56:30.450Z,5.73
2022-11-02T13:59:01.773Z,6.93
2022-11-02T14:01:32.878Z,7.05
2022-11-02T14:04:05.514Z,4.45
2022-11-02T14:06:46.014Z,4.10
2022-11-02T14:09:24.014Z,5.40
2022-11-02T14:11:51.953Z,4.63
2022-11-02T14:14:24.321Z,6.68
2022-11-02T14:17:09.884Z,6.10
2022-11-02T14:19:53.804Z,7.22
2022-11-02T14:22:22.527Z,10.13
2022-11-02T14:25:16.140Z,5.72
2022-11-02T14:27:44.008Z,7.25
2022-11-02T14:30:45.110Z,4.60
2022-11-02T14:33:39.749Z,4.70
2022-11-02T14:36:18.381Z,5.27
2022-11-02T14:39:09.193Z,7.47
2022-11-02T14:41:57.492Z,4.65
2022-11-02T14:44:54.405Z,6.78
2022-11-02T14:47:27.917Z,7.38
2022-11-02T14:49:59.371Z,8.00
2022-11-02T14:52:28.654Z,6.63
2022-11-02T14:55:01.651Z,5.82
2022-11-02T14:57:32.250Z,5.00
2022-11-02T15:00:03.928Z,5.70
2022-11-02T15:02:37.391Z,5.47
2022-11-02T15:05:18.025Z,5.38
2022-11-02T15:07:50.953Z,5.43
2022-11-02T15:10:41.840Z,6.00
2022-11-02T15:13:34.649Z,4.60
2022-11-02T15:16:24.753Z,8.93
2022-11-02T15:18:52.226Z,4.80
2022-11-02T15:21:24.382Z,5.32
2022-11-02T15:24:07.912Z,5.20
2022-11-02T15:26:45.458Z,7.22
2022-11-02T15:29:22.433Z,5.73
2022-11-02T15:31:55.462Z,5.35
2022-11-02T15:34:31.006Z,4.90
2022-11-02T15:37:00.277Z,6.28
2022-11-02T15:39:28.046Z,5.47
2022-11-02T15:42:03.841Z,8.03
2022-11-02T15:45:14.291Z,7.85
2022-11-02T15:47:59.974Z,5.32
2022-11-02T15:50:36.049Z,8.05
2022-11-02T15:53:34.003Z,5.95
2022-11-02T15:56:21.999Z,6.20
2022-11-02T15:59:13.122Z,5.25
2022-11-02T16:01:40.848Z,4.82
2022-11-02T16:04:11.723Z,6.30
2022-11-02T16:06:42.898Z,7.72
2022-11-02T16:09:31.739Z,6.07
2022-11-02T16:12:04.052Z,6.57
2022-11-02T16:14:32.662Z,7.28
2022-11-02T16:16:59.953Z,6.88
2022-11-02T16:19:27.228Z,7.10
2022-11-02T16:21:59.965Z,7.97
2022-11-02T16:24:28.958Z,6.88
2022-11-02T16:26:56.522Z,6.07
2022-11-02T16:29:29.861Z,6.70
2022-11-02T16:31:58.672Z,5.53
2022-11-02T16:34:29.579Z,11.17
2022-11-02T16:36:57.878Z,7.90
2022-11-02T16:39:27.913Z,6.40
2022-11-02T16:41:57.536Z,6.85
2022-11-02T16:44:27.279Z,6.95
2022-11-02T16:46:59.359Z,6.63
2022-11-02T16:49:27.953Z,7.95
2022-11-02T16:51:56.793Z,5.80
2022-11-02T16:54:30.713Z,6.32
2022-11-02T16:57:06.020Z,6.95
2022-11-02T16:59:36.908Z,5.10
2022-11-02T17:02:11.852Z,6.82
2022-11-02T17:04:41.932Z,7.05
2022-11-02T17:07:13.281Z,7.78
2022-11-02T17:09:40.930Z,5.45
2022-11-02T17:12:15.157Z,8.80
2022-11-02T17:14:44.573Z,8.57
2022-11-02T17:17:34.981Z,6.18
2022-11-02T17:20:20.755Z,8.75
2022-11-02T17:22:59.053Z,8.73
2022-11-02T17:25:28.334Z,6.33
2022-11-02T17:27:57.146Z,7.85
2022-11-02T17:30:45.175Z,7.13
2022-11-02T17:33:26.168Z,7.90
2022-11-02T17:35:55.638Z,7.80
2022-11-02T17:38:26.102Z,8.23
2022-11-02T17:40:54.491Z,6.68
2022-11-02T17:43:23.581Z,7.20
2022-11-02T17:45:55.135Z,6.82
2022-11-02T17:48:24.651Z,7.28
2022-11-02T17:50:54.185Z,7.93
2022-11-02T17:53:22.068Z,8.23
2022-11-02T17:55:49.540Z,7.40
2022-11-02T17:58:17.146Z,5.70
2022-11-02T18:00:44.613Z,7.65
2022-11-02T18:03:15.844Z,7.37
2022-11-02T18:05:48.545Z,6.50
2022-11-02T18:08:17.623Z,8.73
2022-11-02T18:10:47.097Z,8.38
2022-11-02T18:13:16.358Z,7.38
2022-11-02T18:15:43.926Z,7.73
2022-11-02T18:18:11.248Z,7.85
2022-11-02T18:20:41.784Z,8.98
2022-11-02T18:23:15.091Z,9.23
2022-11-02T18:25:42.405Z,9.30
2022-11-02T18:28:09.712Z,8.20
2022-11-02T18:30:36.951Z,7.50
2022-11-02T18:33:04.349Z,7.38
2022-11-02T18:35:31.601Z,8.65
2022-11-02T18:37:58.859Z,8.25
2022-11-02T18:40:32.753Z,9.17
2022-11-02T18:43:02.684Z,11.07
2022-11-02T18:47:57.422Z,12.02
2022-11-02T18:50:25.003Z,9.80
2022-11-02T18:52:52.272Z,10.07
2022-11-02T18:55:19.558Z,9.75
2022-11-02T18:57:50.721Z,7.88
2022-11-02T19:00:18.587Z,10.93
2022-11-02T19:02:45.906Z,12.25
2022-11-02T19:05:32.066Z,9.77
2022-11-02T19:08:17.979Z,13.00
2022-11-02T19:10:46.520Z,9.93
2022-11-02T19:13:15.230Z,11.30
2022-11-02T19:15:43.041Z,9.40
2022-11-02T19:18:10.387Z,11.03
2022-11-02T19:20:37.677Z,8.88
2022-11-02T19:23:05.025Z,9.90
2022-11-02T19:25:32.346Z,11.25
2022-11-02T19:27:59.683Z,11.10
2022-11-02T19:30:28.293Z,12.27
2022-11-02T19:32:56.922Z,11.73
2022-11-02T19:35:24.176Z,12.60
2022-11-02T19:37:55.681Z,17.63
2022-11-02T19:40:22.930Z,13.73
2022-11-02T19:42:50.181Z,16.07
2022-11-02T19:45:17.891Z,16.88
2022-11-02T19:47:46.483Z,12.35
2022-11-02T19:50:13.800Z,14.05
2022-11-02T19:52:41.109Z,11.48
2022-11-02T19:55:09.095Z,14.43
2022-11-02T19:57:36.329Z,13.30
2022-11-02T20:00:04.366Z,12.45
2022-11-02T20:02:36.352Z,10.95
2022-11-02T20:05:06.561Z,12.25
2022-11-02T20:07:33.819Z,12.13
2022-11-02T20:10:01.099Z,12.38
2022-11-02T20:12:28.406Z,14.07
2022-11-02T20:14:55.712Z,11.85
2022-11-02T20:17:32.027Z,11.35
2022-11-02T20:20:08.256Z,11.13
2022-11-02T20:22:35.703Z,15.88
2022-11-02T20:25:03.035Z,10.95
2022-11-02T20:27:30.542Z,11.07
2022-11-02T20:29:57.846Z,12.45
2022-11-02T20:32:26.517Z,10.00
2022-11-02T20:34:53.830Z,12.85
2022-11-02T20:37:22.424Z,14.95
2022-11-02T20:39:50.007Z,12.68
2022-11-02T20:42:17.342Z,17.23
2022-11-02T20:44:49.119Z,13.03
2022-11-02T20:47:16.422Z,13.43
2022-11-02T20:49:50.397Z,10.38
2022-11-02T20:52:19.015Z,13.10
2022-11-02T20:54:47.666Z,13.60
2022-11-02T20:57:15.058Z,14.67
2022-11-02T20:59:42.375Z,12.32
2022-11-02T21:02:11.219Z,13.65
2022-11-02T21:04:38.548Z,12.85
2022-11-02T21:07:05.906Z,14.80
2022-11-02T21:09:33.150Z,12.83
2022-11-02T21:12:20.365Z,13.63
2022-11-02T21:14:47.600Z,12.45
2022-11-02T21:17:15.311Z,15.48
2022-11-02T21:19:42.560Z,12.93
2022-11-02T21:22:09.798Z,11.83
2022-11-02T21:24:37.101Z,11.60
2022-11-02T21:27:06.729Z,12.63
2022-11-02T21:29:34.299Z,15.30
2022-11-02T21:32:01.554Z,15.13
2022-11-02T21:34:28.871Z,14.87
2022-11-02T21:36:56.192Z,10.93
2022-11-02T21:39:23.436Z,15.80
2022-11-02T21:41:50.674Z,14.30
2022-11-02T21:44:19.224Z,12.88
2022-11-02T21:46:46.482Z,11.23
2022-11-02T21:49:13.722Z,14.13
2022-11-02T21:51:42.532Z,13.63
2022-11-02T21:54:10.219Z,10.45
2022-11-02T21:56:38.124Z,11.30
2022-11-02T21:59:05.575Z,14.87
2022-11-02T22:01:46.268Z,12.45
2022-11-02T22:04:15.821Z,13.23
2022-11-02T22:06:43.377Z,12.32
2022-11-02T22:09:12.139Z,13.57
2022-11-02T22:11:40.300Z,14.07
2022-11-02T22:14:07.604Z,12.13
2022-11-02T22:16:37.971Z,12.23
2022-11-02T22:19:07.112Z,13.63
2022-11-02T22:21:36.668Z,10.35
2022-11-02T22:24:05.036Z,10.07
2022-11-02T22:26:34.174Z,10.77
2022-11-02T22:29:02.436Z,12.10
2022-11-02T22:31:32.058Z,11.13
2022-11-02T22:34:02.783Z,9.52
2022-11-02T22:36:32.648Z,9.33
2022-11-02T22:39:01.434Z,12.70
2022-11-02T22:41:30.870Z,11.27
2022-11-02T22:43:59.359Z,12.73
2022-11-02T22:46:27.829Z,12.40
2022-11-02T22:48:56.938Z,13.50
2022-11-02T22:51:27.244Z,10.55
2022-11-02T22:53:54.935Z,10.57
2022-11-02T22:56:23.606Z,11.05
2022-11-02T22:58:50.976Z,11.85
2022-11-02T23:01:20.437Z,11.03
2022-11-02T23:03:48.933Z,11.77
2022-11-02T23:06:18.396Z,10.43
2022-11-02T23:08:47.872Z,9.55
2022-11-02T23:11:23.150Z,11.50
2022-11-02T23:13:54.080Z,12.80
2022-11-02T23:16:23.729Z,12.43
2022-11-02T23:19:18.865Z,13.52
2022-11-02T23:22:13.114Z,12.68
2022-11-02T23:25:01.870Z,11.20
2022-11-02T23:27:30.129Z,9.97
2022-11-02T23:30:15.772Z,14.38
2022-11-02T23:32:43.133Z,12.95
2022-11-02T23:35:28.730Z,11.25
2022-11-02T23:38:04.225Z,8.85
2022-11-02T23:40:33.142Z,11.83
2022-11-02T23:43:00.514Z,11.30
2022-11-02T23:45:27.823Z,12.05
2022-11-02T23:47:57.722Z,11.63
2022-11-02T23:50:45.062Z,12.13
2022-11-02T23:53:32.729Z,14.73
2022-11-02T23:56:20.812Z,10.27
2022-11-02T23:58:48.223Z,11.02
